Aeroporto :
LOGIN :

Iscrizione | Disclaimer

   EN    FR    IT 

 










Sommario :    VFR   VFR Marginale   IFR   IFR Intensivo   IFR Molto Intensivo
Visibilità : 
Base nubi : 
>= 8 km
>= 3000ft
5 / 8 km
1000 / 3000 ft
1500m / 5 km
500 / 1000 ft
800 / 1500m
200 / 500 ft
< 800m
< 200 ft
Simboli :   Temporali  Nebbia  Neve Forte  Precipitazioni Forti  Vento > 20 kt
SIGMETs :   Varie  Temporali  Ghiacco  Turbolenza  Onda orograficha  Ceneri Vulcaniche






- Altitudine del aeroporto : 325 ft
- Codice IATA : BES


LFRB - Brest

ULTIMO METAR :
  • 221630Z AUTO 02006KT CAVOK 13/10 Q1021 NOSIG

METARs OBSOLETI :
  • 221600Z AUTO 02007KT CAVOK 14/10 Q1021 NOSIG
  • 221530Z AUTO 04008KT CAVOK 14/10 Q1021 NOSIG
  • 221500Z AUTO 02007KT 340V040 CAVOK 14/10 Q1022 NOSIG
  • 221430Z AUTO 04005KT 360V080 9999 BKN048 14/09 Q1022 NOSIG
  • 221400Z AUTO 33003KT 290V020 9999 SCT037 SCT045 16/09 Q1022 NOSIG

TAF TAF LFRB
Valido dal 22 a 12 ore il 23 a 18 ore UTC


221100Z 2212/2318 VRB05KT CAVOK
PROB40
TEMPO 2300/2306 3000 BR NSC
PROB40
TEMPO 2301/2305 0500 FG BKN002
BECMG 2305/2307 03010KT BKN010
TEMPO 2311/2318 3000 RADZ OVC010
ATIS : +33 2 98 32 02 71



MetMap, La meteo Aeronautica in un colpo d'occhio ! - Copyright ORBIFLY Dicembre 2007 - Disclaimer

ORBIFLY MET'MAP TEAM :

Programmazione e sviluppo : Alexandra Zaïnal
Concezione e sviluppo : Baudouin d'Aumeries
Co-Programmazione e sviluppo : Marc-Olivier Méhu
Supporto tecnico e logistico : Manuel Goepfert
Aiuto per la traduzione : Arnaldo La Scala

Contatto : metmap@orbifly.com




FONTI E CREDITI :

   NOAA